Satellite Precipitation Estimates (TXUS20 KWBC)
Issued by NWS

Home | Current Version | Previous Version | Text Only | Print | Product List | Glossary On
Versions: 1 2
000
SPTD31 TTPP 290303
SPECI
TTPP 290235Z 00000KT 9999 FEW012CB 26/24 Q1012 RETS NOSIG=



USA.gov is the U.S. government's official web portal to all federal, state and local government web resources and services.